Time;durP1;ratioP1;P1;durP2;ratioP2;P2;SDS_P1;SDS_P2;PMS_P1;PMS_P2;Temp;Humidity;BMP_temperature;BMP_pressure;BME280_temperature;BME280_humidity;BME280_pressure;Samples;Min_cycle;Max_cycle;Signal;HPM_P1;HPM_P2
2022/07/22 00:00:38;;;;;;;;;;;;;;;27.82;42.25;99629.03;2067633;28;19917;-66
2022/07/22 00:01:38;;;;;;;;;;;;;;;27.80;42.19;99632.03;2065341;28;19927;-66
2022/07/22 00:02:38;;;;;;;;;;;;;;;27.81;42.01;99630.97;2067656;28;20387;-66
2022/07/22 00:03:39;;;;;;;;;;;;;;;27.82;42.04;99629.03;2067171;28;20581;-66
2022/07/22 00:04:39;;;;;;;;;;;;;;;27.82;41.94;99629.03;2068898;28;19917;-65
2022/07/22 00:05:39;;;;;;;;;;;;;;;27.83;41.97;99630.75;2067942;28;19945;-66
2022/07/22 00:06:40;;;;;;;;;;;;;;;27.82;42.14;99629.03;2067163;28;19917;-66
2022/07/22 00:07:40;;;;;;;;;;;;;;;27.82;41.95;99634.56;2069240;28;19909;-66
2022/07/22 00:08:40;;;;;;;;;;;;;;;27.82;41.95;99635.47;2065271;28;19921;-65
2022/07/22 00:09:41;;;;;;;;;;;;;;;27.82;41.93;99635.47;2061037;28;19941;-65
2022/07/22 00:10:41;;;;;;;;;;;;;;;27.82;42.01;99631.81;2066464;28;19921;-66
2022/07/22 00:11:42;;;;;;;;;;;;;;;27.82;42.20;99629.03;2065835;28;19917;-65
2022/07/22 00:12:42;;;;;;;;;;;;;;;27.82;41.92;99629.03;2068553;28;19948;-65
2022/07/22 00:13:42;;;;;;;;;;;;;;;27.82;42.10;99629.03;2060910;28;19923;-66
2022/07/22 00:14:43;;;;;;;;;;;;;;;27.80;42.01;99630.09;2065908;28;19948;-66
2022/07/22 00:15:43;;;;;;;;;;;;;;;27.81;42.26;99628.19;2064197;28;20599;-66
2022/07/22 00:16:43;;;;;;;;;;;;;;;27.81;41.93;99628.19;2060547;28;19999;-66
2022/07/22 00:17:44;;;;;;;;;;;;;;;27.80;42.03;99618.16;2061554;28;20020;-66
2022/07/22 00:18:44;;;;;;;;;;;;;;;27.79;42.05;99625.63;2063995;28;19917;-65
2022/07/22 00:19:44;;;;;;;;;;;;;;;27.80;42.21;99629.25;2068980;28;19963;-66
2022/07/22 00:20:44;;;;;;;;;;;;;;;27.78;42.20;99621.19;2067609;28;19916;-65
2022/07/22 00:21:45;;;;;;;;;;;;;;;27.79;42.31;99619.25;2064628;28;19964;-66
2022/07/22 00:22:45;;;;;;;;;;;;;;;27.78;42.25;99618.41;2068503;28;19952;-66
2022/07/22 00:23:45;;;;;;;;;;;;;;;27.79;42.42;99619.25;2063582;28;19916;-65
2022/07/22 00:24:46;;;;;;;;;;;;;;;27.78;42.55;99621.19;2068638;28;19917;-66
2022/07/22 00:25:46;;;;;;;;;;;;;;;27.77;42.31;99622.22;2060338;28;19918;-66
2022/07/22 00:26:46;;;;;;;;;;;;;;;27.78;42.33;99626.72;2062094;28;19917;-66
2022/07/22 00:27:47;;;;;;;;;;;;;;;27.78;42.37;99623.06;2060627;28;19924;-66
2022/07/22 00:28:47;;;;;;;;;;;;;;;27.78;42.44;99623.94;2063959;28;19917;-66
2022/07/22 00:29:47;;;;;;;;;;;;;;;27.78;42.38;99621.19;2061300;28;19917;-66
2022/07/22 00:30:48;;;;;;;;;;;;;;;27.78;42.27;99623.06;2067941;28;19940;-66
2022/07/22 00:31:48;;;;;;;;;;;;;;;27.77;42.32;99616.69;2065897;28;19963;-66
2022/07/22 00:32:48;;;;;;;;;;;;;;;27.78;42.26;99626.72;2061057;28;19910;-66
2022/07/22 00:33:49;;;;;;;;;;;;;;;27.77;42.32;99619.47;2066433;28;20027;-66
2022/07/22 00:34:49;;;;;;;;;;;;;;;27.78;42.37;99615.63;2068723;28;20444;-66
2022/07/22 00:35:49;;;;;;;;;;;;;;;27.78;42.33;99618.41;2065003;28;20348;-66
2022/07/22 00:36:50;;;;;;;;;;;;;;;27.78;42.18;99623.06;2064589;28;19924;-66
2022/07/22 00:37:50;;;;;;;;;;;;;;;27.78;42.32;99618.41;2076542;28;20052;-66
2022/07/22 00:38:50;;;;;;;;;;;;;;;27.78;42.23;99617.53;2071237;28;19967;-66
2022/07/22 00:39:50;;;;;;;;;;;;;;;27.77;42.20;99616.69;2074299;28;19917;-66
2022/07/22 00:40:51;;;;;;;;;;;;;;;27.77;42.42;99616.69;2062513;28;19917;-66
2022/07/22 00:41:51;;;;;;;;;;;;;;;27.79;42.34;99619.25;2066155;28;19917;-66
2022/07/22 00:42:52;;;;;;;;;;;;;;;27.78;42.38;99620.31;2068991;28;19909;-66
2022/07/22 00:43:53;;;;;;;;;;;;;;;27.78;42.31;99617.53;2072020;28;20308;-66
2022/07/22 00:44:53;;;;;;;;;;;;;;;27.78;42.30;99623.94;2068132;28;19940;-66
2022/07/22 00:45:54;;;;;;;;;;;;;;;27.78;42.50;99623.94;2076053;28;19916;-66
2022/07/22 00:46:54;;;;;;;;;;;;;;;27.77;42.26;99622.22;2067783;28;19916;-66
2022/07/22 00:47:54;;;;;;;;;;;;;;;27.78;42.37;99623.06;2072058;28;19916;-66
2022/07/22 00:48:55;;;;;;;;;;;;;;;27.79;42.54;99627.56;2074197;28;19917;-66
2022/07/22 00:49:55;;;;;;;;;;;;;;;27.78;42.37;99629.50;2067257;28;19960;-66
2022/07/22 00:50:55;;;;;;;;;;;;;;;27.77;42.26;99627.75;2071890;28;19917;-66
2022/07/22 00:51:56;;;;;;;;;;;;;;;27.78;42.51;99635.03;2066449;28;19983;-66
2022/07/22 00:52:56;;;;;;;;;;;;;;;27.78;42.38;99623.94;2063185;28;20599;-66
2022/07/22 00:53:56;;;;;;;;;;;;;;;27.78;42.24;99629.50;2074000;28;19916;-66
2022/07/22 00:54:58;;;;;;;;;;;;;;;27.77;42.24;99625.00;2067715;28;19917;-66
2022/07/22 00:55:59;;;;;;;;;;;;;;;27.77;42.20;99622.22;2068776;28;19928;-66
2022/07/22 00:56:59;;;;;;;;;;;;;;;27.77;42.24;99627.75;2067003;28;19917;-66
2022/07/22 00:57:59;;;;;;;;;;;;;;;27.77;42.19;99621.38;2068369;28;20292;-66
2022/07/22 00:59:02;;;;;;;;;;;;;;;27.78;42.30;99623.06;2064577;28;20009;-66
2022/07/22 01:00:06;;;;;;;;;;;;;;;27.77;42.39;99622.22;2068683;28;19917;-65
2022/07/22 01:01:07;;;;;;;;;;;;;;;27.78;42.39;99617.53;2066487;28;19951;-66
2022/07/22 01:02:07;;;;;;;;;;;;;;;27.77;42.45;99616.69;2067113;28;19918;-65
2022/07/22 01:03:07;;;;;;;;;;;;;;;27.77;42.47;99622.22;2071426;28;20002;-65
2022/07/22 01:04:08;;;;;;;;;;;;;;;27.77;42.35;99621.38;2067135;28;19917;-65
2022/07/22 01:05:08;;;;;;;;;;;;;;;27.75;42.31;99624.38;2066211;28;20176;-66
2022/07/22 01:06:09;;;;;;;;;;;;;;;27.75;42.34;99613.28;2065642;28;19917;-66
2022/07/22 01:07:09;;;;;;;;;;;;;;;27.76;42.56;99620.53;2069889;28;20540;-66
2022/07/22 01:08:10;;;;;;;;;;;;;;;27.74;42.42;99617.13;2072688;28;19919;-65
2022/07/22 01:09:10;;;;;;;;;;;;;;;27.75;42.50;99621.59;2068185;28;19917;-66
2022/07/22 01:10:11;;;;;;;;;;;;;;;27.75;42.45;99616.06;2072696;28;19916;-65
2022/07/22 01:11:13;;;;;;;;;;;;;;;27.74;42.50;99619.91;2066784;28;20709;-66
2022/07/22 01:12:13;;;;;;;;;;;;;;;27.75;42.76;99620.75;2068066;28;20399;-66
2022/07/22 01:13:14;;;;;;;;;;;;;;;27.75;42.75;99618.81;2068531;28;20335;-66
2022/07/22 01:14:14;;;;;;;;;;;;;;;27.74;42.56;99617.13;2066147;28;19917;-66
2022/07/22 01:15:14;;;;;;;;;;;;;;;27.75;42.88;99618.81;2067282;28;20371;-66
2022/07/22 01:16:15;;;;;;;;;;;;;;;27.75;42.82;99620.75;2073302;28;20317;-65
2022/07/22 01:17:16;;;;;;;;;;;;;;;27.75;42.61;99624.38;2071034;28;19924;-65
2022/07/22 01:18:16;;;;;;;;;;;;;;;27.73;42.71;99621.00;2069398;28;19920;-66
2022/07/22 01:19:16;;;;;;;;;;;;;;;27.73;42.68;99618.22;2069452;28;20000;-66
2022/07/22 01:20:17;;;;;;;;;;;;;;;27.74;42.62;99617.13;2073396;28;19944;-66
2022/07/22 01:21:17;;;;;;;;;;;;;;;27.74;42.63;99619.91;2074386;28;19978;-66
2022/07/22 01:22:18;;;;;;;;;;;;;;;27.75;42.46;99618.81;2069332;28;20036;-65
2022/07/22 01:23:18;;;;;;;;;;;;;;;27.75;42.52;99616.06;2075090;28;19917;-65
2022/07/22 01:24:18;;;;;;;;;;;;;;;27.74;42.68;99617.13;2069941;28;19909;-66
2022/07/22 01:25:19;;;;;;;;;;;;;;;27.74;42.55;99619.91;2071673;28;19928;-65
2022/07/22 01:26:19;;;;;;;;;;;;;;;27.75;42.43;99618.81;2059629;28;19955;-66
2022/07/22 01:27:20;;;;;;;;;;;;;;;27.75;42.60;99613.28;2067082;28;19913;-66
2022/07/22 01:28:20;;;;;;;;;;;;;;;27.74;42.60;99617.13;2062627;28;19917;-65
2022/07/22 01:29:20;;;;;;;;;;;;;;;27.74;42.67;99622.66;2068043;28;19913;-65
2022/07/22 01:30:21;;;;;;;;;;;;;;;27.75;42.54;99620.75;2068264;28;19925;-65
2022/07/22 01:31:21;;;;;;;;;;;;;;;27.74;42.57;99617.13;2067358;28;19923;-66
2022/07/22 01:32:21;;;;;;;;;;;;;;;27.74;42.35;99611.59;2067460;28;19923;-66
2022/07/22 01:33:23;;;;;;;;;;;;;;;27.74;42.40;99611.59;2068036;28;19924;-66
2022/07/22 01:34:23;;;;;;;;;;;;;;;27.73;42.53;99604.38;2064762;28;20024;-66
2022/07/22 01:35:23;;;;;;;;;;;;;;;27.74;42.46;99611.59;2067648;28;19974;-66
2022/07/22 01:36:24;;;;;;;;;;;;;;;27.74;42.54;99611.59;2066237;28;19984;-66
2022/07/22 01:37:24;;;;;;;;;;;;;;;27.75;42.43;99612.44;2070202;28;19967;-65
2022/07/22 01:38:24;;;;;;;;;;;;;;;27.74;42.65;99608.00;2066286;28;19917;-66
2022/07/22 01:39:25;;;;;;;;;;;;;;;27.74;42.60;99608.81;2070217;28;19917;-65
2022/07/22 01:40:25;;;;;;;;;;;;;;;27.73;42.77;99612.69;2070194;28;19967;-65
2022/07/22 01:41:26;;;;;;;;;;;;;;;27.73;42.60;99607.13;2066298;28;19905;-66
2022/07/22 01:42:26;;;;;;;;;;;;;;;27.73;42.61;99615.44;2071159;28;19917;-65
2022/07/22 01:43:26;;;;;;;;;;;;;;;27.74;42.67;99614.38;2066449;28;19905;-66
2022/07/22 01:44:27;;;;;;;;;;;;;;;27.74;42.54;99617.13;2068394;28;19924;-66
2022/07/22 01:45:27;;;;;;;;;;;;;;;27.73;42.55;99615.44;2070357;28;19920;-66
2022/07/22 01:46:27;;;;;;;;;;;;;;;27.74;42.43;99613.53;2067135;28;19936;-65
2022/07/22 01:47:27;;;;;;;;;;;;;;;27.72;42.50;99624.81;2073613;28;19939;-66
2022/07/22 01:48:28;;;;;;;;;;;;;;;27.73;42.53;99612.69;2065103;28;19917;-66
2022/07/22 01:49:28;;;;;;;;;;;;;;;27.74;42.46;99616.28;2060945;28;20004;-66
2022/07/22 01:50:29;;;;;;;;;;;;;;;27.72;42.59;99619.25;2068305;28;19917;-66
2022/07/22 01:51:29;;;;;;;;;;;;;;;27.73;42.50;99615.44;2066449;28;20389;-66
2022/07/22 01:52:29;;;;;;;;;;;;;;;27.72;42.64;99613.72;2067351;28;20449;-66
2022/07/22 01:53:30;;;;;;;;;;;;;;;27.72;42.69;99619.25;2066576;28;20612;-66
2022/07/22 01:54:30;;;;;;;;;;;;;;;27.72;42.52;99612.88;2067725;28;19913;-65
2022/07/22 01:55:30;;;;;;;;;;;;;;;27.72;42.50;99613.72;2062333;28;19921;-66
2022/07/22 01:56:30;;;;;;;;;;;;;;;27.72;42.75;99622.03;2067333;28;20007;-66
2022/07/22 01:57:31;;;;;;;;;;;;;;;27.72;42.77;99618.44;2067491;28;20676;-66
2022/07/22 01:58:31;;;;;;;;;;;;;;;27.71;42.62;99620.34;2063331;28;20348;-66
2022/07/22 01:59:31;;;;;;;;;;;;;;;27.70;42.79;99621.41;2068604;28;19940;-66
2022/07/22 02:00:32;;;;;;;;;;;;;;;27.70;42.59;99610.31;2066961;28;20040;-66
2022/07/22 02:01:33;;;;;;;;;;;;;;;27.70;42.92;99618.63;2067059;28;19917;-65
2022/07/22 02:02:33;;;;;;;;;;;;;;;27.70;42.72;99615.84;2067821;28;19913;-66
2022/07/22 02:03:34;;;;;;;;;;;;;;;27.71;42.98;99622.28;2066922;28;19910;-66
2022/07/22 02:04:34;;;;;;;;;;;;;;;27.70;42.85;99621.41;2068461;28;19924;-66
2022/07/22 02:05:34;;;;;;;;;;;;;;;27.70;42.84;99621.41;2061408;28;19959;-66
2022/07/22 02:06:35;;;;;;;;;;;;;;;27.70;42.65;99621.41;2064837;28;19909;-65
2022/07/22 02:07:35;;;;;;;;;;;;;;;27.70;42.80;99623.31;2060777;28;19921;-65
2022/07/22 02:08:36;;;;;;;;;;;;;;;27.71;42.67;99625.88;2060935;28;19909;-65
2022/07/22 02:09:36;;;;;;;;;;;;;;;27.72;42.55;99619.25;2065259;28;19917;-66
2022/07/22 02:10:37;;;;;;;;;;;;;;;27.71;42.56;99628.66;2060895;28;19919;-66
2022/07/22 02:11:37;;;;;;;;;;;;;;;27.71;42.76;99630.59;2064204;28;19921;-66
2022/07/22 02:12:37;;;;;;;;;;;;;;;27.72;42.49;99621.19;2061431;28;19917;-65
2022/07/22 02:13:38;;;;;;;;;;;;;;;27.70;42.58;99615.84;2065126;28;19939;-66
2022/07/22 02:14:38;;;;;;;;;;;;;;;27.72;42.51;99627.56;2064537;28;19986;-66
2022/07/22 02:15:38;;;;;;;;;;;;;;;27.71;42.67;99623.13;2060716;28;19926;-66
2022/07/22 02:16:39;;;;;;;;;;;;;;;27.72;42.48;99621.19;2066604;28;20939;-65
2022/07/22 02:17:39;;;;;;;;;;;;;;;27.71;42.58;99620.34;2067314;28;19916;-66
2022/07/22 02:18:39;;;;;;;;;;;;;;;27.71;42.51;99623.13;2067336;28;19917;-65
2022/07/22 02:19:40;;;;;;;;;;;;;;;27.71;42.59;99617.59;2066540;28;20450;-66
2022/07/22 02:20:40;;;;;;;;;;;;;;;27.71;42.60;99625.03;2062323;28;20341;-65
2022/07/22 02:21:41;;;;;;;;;;;;;;;27.70;42.56;99615.84;2068309;28;20070;-66
2022/07/22 02:22:41;;;;;;;;;;;;;;;27.71;42.74;99616.75;2065826;28;19924;-66
2022/07/22 02:23:41;;;;;;;;;;;;;;;27.69;42.65;99619.72;2063814;28;19972;-66
2022/07/22 02:24:42;;;;;;;;;;;;;;;27.70;42.56;99621.41;2067382;28;19917;-66
2022/07/22 02:25:42;;;;;;;;;;;;;;;27.70;42.52;99615.84;2066251;28;20645;-66
2022/07/22 02:26:42;;;;;;;;;;;;;;;27.70;42.64;99618.63;2068096;28;19917;-66
2022/07/22 02:27:43;;;;;;;;;;;;;;;27.71;42.57;99613.97;2066127;28;20190;-65
2022/07/22 02:28:43;;;;;;;;;;;;;;;27.70;42.62;99615.84;2060723;28;19917;-65
2022/07/22 02:29:43;;;;;;;;;;;;;;;27.71;42.66;99617.59;2065738;28;19917;-66
2022/07/22 02:30:44;;;;;;;;;;;;;;;27.70;42.51;99615.84;2066116;28;19981;-66
2022/07/22 02:31:44;;;;;;;;;;;;;;;27.71;42.55;99613.97;2068204;28;19913;-66
2022/07/22 02:32:44;;;;;;;;;;;;;;;27.70;42.67;99615.84;2067571;28;20134;-65
2022/07/22 02:33:45;;;;;;;;;;;;;;;27.70;42.48;99615.84;2069346;28;19917;-65
2022/07/22 02:34:45;;;;;;;;;;;;;;;27.70;42.55;99610.31;2060180;28;19918;-65
2022/07/22 02:35:45;;;;;;;;;;;;;;;27.70;42.70;99621.41;2063327;28;19928;-65
2022/07/22 02:36:45;;;;;;;;;;;;;;;27.70;42.52;99615.84;2059735;28;19961;-65
2022/07/22 02:37:46;;;;;;;;;;;;;;;27.70;42.71;99628.88;2063387;28;19976;-65
2022/07/22 02:38:46;;;;;;;;;;;;;;;27.68;42.76;99615.22;2062942;28;19917;-65
2022/07/22 02:39:46;;;;;;;;;;;;;;;27.69;42.58;99625.25;2065032;28;20008;-65
2022/07/22 02:40:47;;;;;;;;;;;;;;;27.68;42.68;99623.53;2069964;28;19920;-65
2022/07/22 02:41:47;;;;;;;;;;;;;;;27.69;42.77;99619.72;2064175;28;19961;-65
2022/07/22 02:42:47;;;;;;;;;;;;;;;27.68;42.78;99623.53;2069173;28;20344;-65
2022/07/22 02:43:48;;;;;;;;;;;;;;;27.69;42.80;99618.88;2067059;28;19917;-65
2022/07/22 02:44:48;;;;;;;;;;;;;;;27.67;42.83;99616.31;2065994;28;19917;-65
2022/07/22 02:45:48;;;;;;;;;;;;;;;27.68;43.07;99620.75;2070144;28;20461;-65
2022/07/22 02:46:49;;;;;;;;;;;;;;;27.67;43.02;99624.63;2066759;28;19917;-65
2022/07/22 02:47:51;;;;;;;;;;;;;;;27.68;42.87;99617.16;2064014;28;19928;-65
2022/07/22 02:48:51;;;;;;;;;;;;;;;27.68;42.96;99622.69;2067258;28;19917;-65
2022/07/22 02:49:51;;;;;;;;;;;;;;;27.67;42.95;99624.63;2067877;28;20372;-65
2022/07/22 02:50:52;;;;;;;;;;;;;;;27.67;43.14;99616.31;2065598;28;19967;-66
2022/07/22 02:51:52;;;;;;;;;;;;;;;27.67;43.17;99616.31;2069542;28;20407;-65
2022/07/22 02:52:52;;;;;;;;;;;;;;;27.67;42.97;99616.31;2067483;28;19964;-65
2022/07/22 02:53:53;;;;;;;;;;;;;;;27.67;42.89;99616.31;2064405;28;19924;-65
2022/07/22 02:54:53;;;;;;;;;;;;;;;27.67;43.11;99621.84;2067444;28;19913;-65
2022/07/22 02:55:53;;;;;;;;;;;;;;;27.67;43.00;99615.47;2066706;28;19952;-65
2022/07/22 02:56:54;;;;;;;;;;;;;;;27.68;43.00;99617.16;2066141;28;20481;-65
2022/07/22 02:57:54;;;;;;;;;;;;;;;27.67;42.87;99621.84;2067620;28;19924;-65
2022/07/22 02:58:54;;;;;;;;;;;;;;;27.67;42.80;99616.31;2066217;28;19939;-65
2022/07/22 02:59:54;;;;;;;;;;;;;;;27.68;43.02;99620.75;2071443;28;20054;-65
2022/07/22 03:00:55;;;;;;;;;;;;;;;27.68;42.83;99622.69;2067307;28;20948;-65
2022/07/22 03:01:55;;;;;;;;;;;;;;;27.67;42.92;99624.63;2060835;28;20938;-65
2022/07/22 03:02:55;;;;;;;;;;;;;;;27.67;42.82;99616.31;2066862;28;20021;-65
2022/07/22 03:03:56;;;;;;;;;;;;;;;27.67;42.85;99621.84;2067231;28;20706;-65
2022/07/22 03:04:56;;;;;;;;;;;;;;;27.67;42.83;99619.06;2069151;28;20513;-65
2022/07/22 03:05:57;;;;;;;;;;;;;;;27.66;42.80;99620.16;2065334;28;19917;-65
2022/07/22 03:06:57;;;;;;;;;;;;;;;27.67;43.05;99616.31;2064168;28;20032;-65
2022/07/22 03:07:57;;;;;;;;;;;;;;;27.67;42.88;99621.84;2067601;28;20376;-65
2022/07/22 03:08:58;;;;;;;;;;;;;;;27.68;42.86;99622.69;2063673;28;20020;-65
2022/07/22 03:09:58;;;;;;;;;;;;;;;27.67;43.03;99621.84;2069642;28;19929;-65
2022/07/22 03:10:58;;;;;;;;;;;;;;;27.68;42.79;99618.00;2068890;28;20485;-65
2022/07/22 03:11:59;;;;;;;;;;;;;;;27.68;42.78;99614.38;2069738;28;19913;-65
2022/07/22 03:12:59;;;;;;;;;;;;;;;27.67;42.75;99621.84;2062392;28;20759;-65
2022/07/22 03:13:59;;;;;;;;;;;;;;;27.68;43.00;99617.16;2065314;28;19920;-65
2022/07/22 03:14:59;;;;;;;;;;;;;;;27.67;43.08;99615.47;2067805;28;19913;-65
2022/07/22 03:16:00;;;;;;;;;;;;;;;27.66;42.95;99611.84;2068533;28;19920;-65
2022/07/22 03:17:00;;;;;;;;;;;;;;;27.67;42.81;99609.94;2066820;28;20029;-65
2022/07/22 03:18:01;;;;;;;;;;;;;;;27.67;42.71;99616.31;2065634;28;20404;-65
2022/07/22 03:19:01;;;;;;;;;;;;;;;27.67;42.76;99616.31;2067016;28;20388;-65
2022/07/22 03:20:03;;;;;;;;;;;;;;;27.67;42.94;99609.94;2067922;28;19917;-65
2022/07/22 03:21:03;;;;;;;;;;;;;;;27.67;42.78;99613.53;2066651;28;20004;-65
2022/07/22 03:22:04;;;;;;;;;;;;;;;27.66;43.00;99609.09;2063495;28;20411;-65
2022/07/22 03:23:04;;;;;;;;;;;;;;;27.66;42.79;99608.22;2074434;28;19916;-65
2022/07/22 03:24:04;;;;;;;;;;;;;;;27.65;42.85;99607.38;2068981;28;19923;-65
2022/07/22 03:25:05;;;;;;;;;;;;;;;27.65;42.91;99607.38;2070188;28;20015;-65
2022/07/22 03:26:05;;;;;;;;;;;;;;;27.65;42.95;99600.97;2073967;28;19909;-65
2022/07/22 03:27:06;;;;;;;;;;;;;;;27.64;42.92;99611.22;2064011;28;19963;-65
2022/07/22 03:28:06;;;;;;;;;;;;;;;27.65;42.98;99612.06;2061205;28;19916;-65
2022/07/22 03:29:07;;;;;;;;;;;;;;;27.64;42.89;99613.97;2064486;28;19917;-65
2022/07/22 03:30:08;;;;;;;;;;;;;;;27.64;43.01;99611.22;2073824;28;19909;-65
2022/07/22 03:31:08;;;;;;;;;;;;;;;27.63;42.77;99609.50;2070839;28;19922;-65
2022/07/22 03:32:08;;;;;;;;;;;;;;;27.64;42.90;99610.38;2070236;28;19954;-65
2022/07/22 03:33:08;;;;;;;;;;;;;;;27.63;43.11;99617.81;2067727;28;19960;-65
2022/07/22 03:34:09;;;;;;;;;;;;;;;27.64;43.18;99615.91;2065906;28;20643;-65
2022/07/22 03:35:09;;;;;;;;;;;;;;;27.63;43.06;99615.03;2067858;28;20356;-65
2022/07/22 03:36:09;;;;;;;;;;;;;;;27.63;42.92;99615.03;2063377;28;19921;-65
2022/07/22 03:37:10;;;;;;;;;;;;;;;27.63;43.04;99620.56;2070442;28;19929;-65
2022/07/22 03:38:10;;;;;;;;;;;;;;;27.64;43.07;99615.91;2066870;28;20006;-65
2022/07/22 03:39:10;;;;;;;;;;;;;;;27.64;42.94;99615.91;2068470;28;19917;-65
2022/07/22 03:40:11;;;;;;;;;;;;;;;27.64;42.79;99616.75;2063568;28;19917;-65
2022/07/22 03:41:11;;;;;;;;;;;;;;;27.64;42.73;99615.91;2069286;28;20022;-65
2022/07/22 03:42:11;;;;;;;;;;;;;;;27.64;42.76;99615.91;2073041;28;19924;-65
2022/07/22 03:43:12;;;;;;;;;;;;;;;27.63;42.97;99615.03;2069591;28;20019;-65
2022/07/22 03:44:12;;;;;;;;;;;;;;;27.63;42.76;99615.03;2073330;28;19917;-65
2022/07/22 03:45:12;;;;;;;;;;;;;;;27.64;42.91;99611.22;2068700;28;19924;-65
2022/07/22 03:46:13;;;;;;;;;;;;;;;27.65;42.98;99617.59;2068131;28;20355;-65
2022/07/22 03:47:20;;;;;;;;;;;;;;;27.64;42.84;99610.38;2071895;28;20005;-65
2022/07/22 03:48:20;;;;;;;;;;;;;;;27.63;42.84;99609.50;2069104;28;19917;-65
2022/07/22 03:49:20;;;;;;;;;;;;;;;27.64;42.83;99610.38;2072519;28;19917;-65
2022/07/22 03:50:20;;;;;;;;;;;;;;;27.65;42.75;99614.81;2071031;28;19924;-65
2022/07/22 03:51:21;;;;;;;;;;;;;;;27.64;43.04;99622.28;2066430;28;19924;-65
2022/07/22 03:52:21;;;;;;;;;;;;;;;27.63;42.77;99615.03;2062921;28;19924;-65
2022/07/22 03:53:21;;;;;;;;;;;;;;;27.63;42.86;99609.50;2067598;28;19953;-65
2022/07/22 03:54:22;;;;;;;;;;;;;;;27.64;42.90;99616.75;2069269;28;19979;-65
2022/07/22 03:55:22;;;;;;;;;;;;;;;27.64;43.05;99616.75;2062319;28;19926;-65
2022/07/22 03:56:22;;;;;;;;;;;;;;;27.64;42.81;99618.69;2065083;28;20044;-65
2022/07/22 03:57:23;;;;;;;;;;;;;;;27.63;42.72;99615.03;2068821;28;19921;-65
2022/07/22 03:58:24;;;;;;;;;;;;;;;27.64;42.76;99616.75;2063737;28;19917;-65
2022/07/22 03:59:24;;;;;;;;;;;;;;;27.64;42.98;99622.28;2064572;28;19991;-65
2022/07/22 04:00:25;;;;;;;;;;;;;;;27.64;43.03;99622.28;2068080;28;19917;-65
2022/07/22 04:01:25;;;;;;;;;;;;;;;27.63;42.81;99620.56;2067413;28;19913;-65
2022/07/22 04:02:25;;;;;;;;;;;;;;;27.64;42.96;99622.28;2068579;28;19913;-65
2022/07/22 04:03:25;;;;;;;;;;;;;;;27.64;42.76;99616.75;2066882;28;19916;-65
2022/07/22 04:04:26;;;;;;;;;;;;;;;27.64;42.99;99619.53;2067148;28;19913;-65
2022/07/22 04:05:26;;;;;;;;;;;;;;;27.64;42.78;99615.91;2068846;28;19914;-65
2022/07/22 04:06:26;;;;;;;;;;;;;;;27.63;43.02;99615.03;2067786;28;20299;-65
2022/07/22 04:07:27;;;;;;;;;;;;;;;27.63;42.85;99620.56;2069002;28;19913;-65
2022/07/22 04:08:27;;;;;;;;;;;;;;;27.64;42.90;99621.44;2067741;28;19913;-65
2022/07/22 04:09:27;;;;;;;;;;;;;;;27.63;42.86;99620.56;2067778;28;19971;-65
2022/07/22 04:10:28;;;;;;;;;;;;;;;27.63;43.06;99620.56;2065636;28;19924;-65
2022/07/22 04:11:28;;;;;;;;;;;;;;;27.62;43.08;99629.13;2066053;28;20137;-65
2022/07/22 04:12:28;;;;;;;;;;;;;;;27.61;42.84;99622.72;2068832;28;19924;-65
2022/07/22 04:13:28;;;;;;;;;;;;;;;27.62;42.81;99629.94;2067106;28;20347;-65
2022/07/22 04:14:29;;;;;;;;;;;;;;;27.61;42.96;99625.50;2068348;28;20535;-65
2022/07/22 04:15:30;;;;;;;;;;;;;;;27.62;43.17;99623.56;2062762;28;20868;-65
2022/07/22 04:16:30;;;;;;;;;;;;;;;27.61;43.14;99628.28;2068398;28;19975;-65
2022/07/22 04:17:30;;;;;;;;;;;;;;;27.61;43.19;99625.50;2069010;28;19924;-65
2022/07/22 04:18:31;;;;;;;;;;;;;;;27.61;43.16;99621.84;2064103;28;20363;-65
2022/07/22 04:19:31;;;;;;;;;;;;;;;27.60;43.12;99620.16;2068788;28;19964;-65
2022/07/22 04:20:31;;;;;;;;;;;;;;;27.60;43.26;99621.00;2068618;28;20425;-65
2022/07/22 04:21:32;;;;;;;;;;;;;;;27.60;43.23;99626.53;2069185;28;20002;-65
2022/07/22 04:22:32;;;;;;;;;;;;;;;27.61;43.37;99621.84;2064731;28;19956;-65
2022/07/22 04:23:32;;;;;;;;;;;;;;;27.60;43.34;99621.00;2061722;28;20351;-65
2022/07/22 04:24:33;;;;;;;;;;;;;;;27.60;43.33;99615.47;2069249;28;19917;-65
2022/07/22 04:25:33;;;;;;;;;;;;;;;27.60;43.37;99609.09;2067860;28;19916;-65
2022/07/22 04:26:34;;;;;;;;;;;;;;;27.59;43.33;99619.31;2069076;28;19924;-65
2022/07/22 04:27:35;;;;;;;;;;;;;;;27.59;43.25;99616.56;2067245;28;19928;-65
2022/07/22 04:28:35;;;;;;;;;;;;;;;27.60;43.41;99621.00;2066277;28;19909;-65
2022/07/22 04:29:35;;;;;;;;;;;;;;;27.60;43.21;99618.25;2061011;28;19917;-65
2022/07/22 04:30:36;;;;;;;;;;;;;;;27.60;43.41;99620.16;2068337;28;19909;-65
2022/07/22 04:31:36;;;;;;;;;;;;;;;27.59;43.28;99619.31;2074925;28;20008;-65
2022/07/22 04:32:37;;;;;;;;;;;;;;;27.60;43.25;99626.53;2070878;28;19954;-65
2022/07/22 04:33:37;;;;;;;;;;;;;;;27.60;43.22;99625.72;2070145;28;20568;-65
2022/07/22 04:34:37;;;;;;;;;;;;;;;27.60;43.20;99629.31;2062174;28;19963;-65
2022/07/22 04:35:38;;;;;;;;;;;;;;;27.60;43.19;99632.09;2066675;28;19925;-65
2022/07/22 04:36:38;;;;;;;;;;;;;;;27.60;43.18;99626.53;2064892;28;19928;-65
2022/07/22 04:37:38;;;;;;;;;;;;;;;27.60;43.28;99637.63;2066015;28;19925;-65
2022/07/22 04:38:39;;;;;;;;;;;;;;;27.60;43.27;99632.09;2069457;28;20000;-65
2022/07/22 04:39:39;;;;;;;;;;;;;;;27.60;43.26;99634.84;2064207;28;20038;-65
2022/07/22 04:40:39;;;;;;;;;;;;;;;27.59;43.20;99635.94;2068427;28;19916;-65
2022/07/22 04:41:39;;;;;;;;;;;;;;;27.60;43.14;99637.63;2065993;28;19917;-65
2022/07/22 04:42:40;;;;;;;;;;;;;;;27.61;43.09;99638.47;2071953;28;20916;-65
2022/07/22 04:43:40;;;;;;;;;;;;;;;27.61;43.00;99644.00;2072277;28;20613;-65
2022/07/22 04:44:40;;;;;;;;;;;;;;;27.59;43.14;99638.69;2065374;28;19924;-65
2022/07/22 04:45:41;;;;;;;;;;;;;;;27.60;43.01;99648.69;2072498;28;19923;-65
2022/07/22 04:46:41;;;;;;;;;;;;;;;27.60;43.13;99643.16;2062407;28;20803;-65
2022/07/22 04:47:41;;;;;;;;;;;;;;;27.61;43.16;99652.31;2070678;28;19953;-65
2022/07/22 04:48:41;;;;;;;;;;;;;;;27.59;43.26;99652.53;2069801;28;19916;-65
2022/07/22 04:49:42;;;;;;;;;;;;;;;27.60;43.18;99653.38;2068698;28;19913;-65
2022/07/22 04:50:42;;;;;;;;;;;;;;;27.59;43.25;99649.78;2068340;28;20802;-65
2022/07/22 04:51:42;;;;;;;;;;;;;;;27.59;43.19;99647.00;2068035;28;19949;-65
2022/07/22 04:52:43;;;;;;;;;;;;;;;27.60;43.15;99651.47;2071175;28;19952;-65
2022/07/22 04:53:43;;;;;;;;;;;;;;;27.60;43.21;99648.69;2071141;28;19939;-65
2022/07/22 04:54:43;;;;;;;;;;;;;;;27.59;43.26;99647.00;2065777;28;21313;-65
2022/07/22 04:55:43;;;;;;;;;;;;;;;27.59;43.30;99647.00;2067745;28;19921;-64
2022/07/22 04:56:44;;;;;;;;;;;;;;;27.59;43.15;99655.31;2075144;28;19925;-65
2022/07/22 04:57:44;;;;;;;;;;;;;;;27.59;43.30;99652.53;2070628;28;19916;-65
2022/07/22 04:58:44;;;;;;;;;;;;;;;27.58;43.01;99656.38;2074810;28;20026;-65
2022/07/22 04:59:45;;;;;;;;;;;;;;;27.58;43.07;99653.59;2072529;28;19967;-65
2022/07/22 05:00:45;;;;;;;;;;;;;;;27.58;43.30;99651.69;2071363;28;19917;-65
2022/07/22 05:01:46;;;;;;;;;;;;;;;27.58;43.28;99648.06;2067202;28;19944;-65
2022/07/22 05:02:47;;;;;;;;;;;;;;;27.57;43.28;99651.91;2066010;28;19916;-65
2022/07/22 05:03:47;;;;;;;;;;;;;;;27.57;43.27;99654.69;2064085;28;20860;-65
2022/07/22 05:04:47;;;;;;;;;;;;;;;27.57;43.41;99651.91;2064576;28;20297;-65
2022/07/22 05:05:48;;;;;;;;;;;;;;;27.57;43.23;99657.44;2068441;28;20287;-65
2022/07/22 05:06:48;;;;;;;;;;;;;;;27.56;43.22;99659.38;2063926;28;20032;-65
2022/07/22 05:07:48;;;;;;;;;;;;;;;27.56;43.42;99652.94;2068964;28;19916;-65
2022/07/22 05:08:49;;;;;;;;;;;;;;;27.56;43.33;99659.38;2065889;28;20063;-65
2022/07/22 05:09:49;;;;;;;;;;;;;;;27.57;43.36;99665.75;2068074;28;20708;-65
2022/07/22 05:10:49;;;;;;;;;;;;;;;27.55;43.45;99657.66;2068402;28;19983;-65
2022/07/22 05:11:50;;;;;;;;;;;;;;;27.56;43.50;99669.56;2062805;28;19941;-65
2022/07/22 05:12:50;;;;;;;;;;;;;;;27.56;43.49;99658.50;2071465;28;19919;-65
2022/07/22 05:13:50;;;;;;;;;;;;;;;27.56;43.73;99658.50;2067584;28;19917;-65
2022/07/22 05:14:51;;;;;;;;;;;;;;;27.55;43.59;99662.34;2070192;28;20728;-65